Time;durP1;ratioP1;P1;durP2;ratioP2;P2;SDS_P1;SDS_P2;PMS_P1;PMS_P2;Temp;Humidity;BMP_temperature;BMP_pressure;BME280_temperature;BME280_humidity;BME280_pressure;Samples;Min_cycle;Max_cycle;Signal;HPM_P1;HPM_P2
2024/01/19 00:01:50;;;;;;;10.02;4.28;;;;;;;2.38;58.99;101311.41;4848505;29;123955;-73
2024/01/19 00:04:17;;;;;;;8.05;4.22;;;;;;;2.38;58.65;101321.88;4826388;29;124461;-71
2024/01/19 00:06:44;;;;;;;8.30;3.75;;;;;;;2.40;58.82;101320.13;4823865;29;118895;-71
2024/01/19 00:09:11;;;;;;;10.10;4.28;;;;;;;2.42;58.77;101328.81;4837934;29;118995;-71
2024/01/19 00:11:39;;;;;;;9.23;4.03;;;;;;;2.43;58.64;101325.34;4822146;29;123174;-72
2024/01/19 00:14:06;;;;;;;7.30;3.70;;;;;;;2.43;58.76;101325.34;4827580;29;126268;-71
2024/01/19 00:16:33;;;;;;;6.18;3.78;;;;;;;2.44;58.68;101320.97;4850922;29;119333;-71
2024/01/19 00:19:00;;;;;;;7.25;3.65;;;;;;;2.46;58.84;101312.25;4850752;28;119218;-72
2024/01/19 00:21:27;;;;;;;6.90;3.55;;;;;;;2.48;58.80;101309.63;4850451;28;123619;-71
2024/01/19 00:23:54;;;;;;;8.05;3.65;;;;;;;2.49;58.83;101309.63;4854150;28;123303;-71
2024/01/19 00:26:22;;;;;;;6.43;3.53;;;;;;;2.52;58.69;101309.63;4839294;29;117797;-72
2024/01/19 00:28:50;;;;;;;6.07;3.63;;;;;;;2.52;58.86;101314.84;4841676;28;118912;-71
2024/01/19 00:31:17;;;;;;;6.15;3.60;;;;;;;2.54;58.84;101312.22;4873974;28;123662;-71
2024/01/19 00:33:46;;;;;;;5.53;3.25;;;;;;;2.55;58.72;101323.56;4881867;28;124299;-71
2024/01/19 00:36:13;;;;;;;7.22;3.53;;;;;;;2.56;58.48;101325.28;4854860;28;120745;-71
2024/01/19 00:38:41;;;;;;;5.43;3.35;;;;;;;2.56;58.93;101330.50;4853598;28;120798;-71
2024/01/19 00:41:08;;;;;;;6.38;3.55;;;;;;;2.56;58.72;101330.50;4843462;28;125102;-71
2024/01/19 00:43:35;;;;;;;8.68;3.50;;;;;;;2.55;58.92;101334.88;4845030;28;123464;-71
2024/01/19 00:46:03;;;;;;;6.07;3.42;;;;;;;2.57;58.95;101327.03;4866175;28;119720;-71
2024/01/19 00:48:30;;;;;;;6.40;3.50;;;;;;;2.57;58.91;101333.13;4866580;28;120001;-71
2024/01/19 00:50:58;;;;;;;11.68;3.97;;;;;;;2.56;58.97;101335.75;4842582;28;123346;-71
2024/01/19 00:53:25;;;;;;;6.70;3.63;;;;;;;2.55;58.84;101334.88;4848241;28;122990;-71
2024/01/19 00:55:52;;;;;;;8.75;4.03;;;;;;;2.55;58.99;101344.47;4877275;28;119430;-71
2024/01/19 00:58:19;;;;;;;5.88;3.40;;;;;;;2.53;58.71;101347.94;4876280;28;120026;-71
2024/01/19 01:00:46;;;;;;;7.38;3.55;;;;;;;2.51;58.74;101373.25;4859688;28;123915;-71
2024/01/19 01:03:24;;;;;;;7.10;3.97;;;;;;;2.50;58.65;101379.31;4875225;28;125268;-71
2024/01/19 01:05:56;;;;;;;7.40;3.70;;;;;;;2.50;58.94;101395.00;4871380;28;119436;-72
2024/01/19 01:08:25;;;;;;;6.63;3.53;;;;;;;2.50;59.01;101388.91;4865631;28;118823;-71
2024/01/19 01:10:54;;;;;;;7.93;3.53;;;;;;;2.50;58.89;101384.56;4873290;28;123355;-71
2024/01/19 01:13:22;;;;;;;8.98;3.80;;;;;;;2.53;59.04;101389.78;4871659;28;124009;-71
2024/01/19 01:15:49;;;;;;;6.57;3.53;;;;;;;2.55;59.02;101388.94;4871379;28;118668;-72
2024/01/19 01:18:16;;;;;;;5.70;3.65;;;;;;;2.57;59.15;101389.78;4875053;28;119993;-72
2024/01/19 01:20:43;;;;;;;6.43;3.35;;;;;;;2.59;58.81;101388.03;4881362;28;124231;-71
2024/01/19 01:23:11;;;;;;;6.30;3.50;;;;;;;2.63;59.20;101379.31;4874203;28;124960;-72
2024/01/19 01:25:38;;;;;;;5.50;3.50;;;;;;;2.66;59.22;101379.31;4856547;28;119757;-72
2024/01/19 01:28:06;;;;;;;7.68;3.75;;;;;;;2.70;59.14;101383.63;4869945;28;119354;-72
2024/01/19 01:30:33;;;;;;;6.82;3.33;;;;;;;2.73;59.11;101387.13;4861870;28;123473;-72
2024/01/19 01:33:01;;;;;;;6.78;3.47;;;;;;;2.76;59.31;101385.34;4864691;28;125135;-72
2024/01/19 01:35:28;;;;;;;7.25;3.78;;;;;;;2.78;59.03;101389.69;4867336;28;119510;-72
2024/01/19 01:37:55;;;;;;;5.90;3.60;;;;;;;2.80;59.02;101382.72;4866581;28;120620;-72
2024/01/19 01:40:23;;;;;;;8.73;3.83;;;;;;;2.83;59.09;101377.47;4865149;28;125339;-71
2024/01/19 01:42:50;;;;;;;7.15;3.40;;;;;;;2.84;59.04;101384.44;4867053;28;123098;-72
2024/01/19 01:45:17;;;;;;;8.23;3.47;;;;;;;2.84;58.67;101394.91;4868966;28;119430;-72
2024/01/19 01:47:44;;;;;;;5.70;3.50;;;;;;;2.82;58.88;101391.41;4858202;28;120511;-72
2024/01/19 01:50:11;;;;;;;5.10;3.40;;;;;;;2.83;58.87;101393.16;4869942;28;124185;-72
2024/01/19 01:52:39;;;;;;;6.55;3.47;;;;;;;2.85;59.13;101390.56;4853469;28;123440;-72
2024/01/19 01:55:07;;;;;;;6.75;3.30;;;;;;;2.84;58.97;101400.13;4853372;28;120732;-72
2024/01/19 01:57:34;;;;;;;5.60;2.92;;;;;;;2.84;58.89;101394.91;4868808;28;119359;-72
2024/01/19 02:00:02;;;;;;;5.70;3.35;;;;;;;2.82;59.27;101391.41;4866526;28;124287;-71
2024/01/19 02:02:30;;;;;;;6.35;3.28;;;;;;;2.81;58.70;101394.94;4870918;28;124563;-72
2024/01/19 02:04:57;;;;;;;8.38;3.50;;;;;;;2.80;58.93;101387.94;4860778;28;119447;-72
2024/01/19 02:07:24;;;;;;;9.60;4.10;;;;;;;2.79;58.96;101391.44;4869136;28;119027;-72
2024/01/19 02:09:52;;;;;;;10.13;3.20;;;;;;;2.78;58.99;101400.16;4857573;28;124633;-72
2024/01/19 02:12:21;;;;;;;6.85;3.20;;;;;;;2.77;58.80;101403.66;4870515;28;123863;-72
2024/01/19 02:14:48;;;;;;;6.18;3.13;;;;;;;2.77;59.06;101403.66;4869018;28;122084;-72
2024/01/19 02:17:15;;;;;;;6.30;3.13;;;;;;;2.77;58.92;101408.91;4858669;28;119385;-72
2024/01/19 02:19:43;;;;;;;7.07;3.47;;;;;;;2.77;58.97;101414.13;4848256;28;124047;-71
2024/01/19 02:22:10;;;;;;;7.38;3.17;;;;;;;2.76;58.86;101428.06;4868987;28;124392;-71
2024/01/19 02:24:37;;;;;;;6.32;3.22;;;;;;;2.72;58.95;101421.13;4854059;28;119774;-72
2024/01/19 02:27:07;;;;;;;6.20;3.28;;;;;;;2.70;58.70;101428.09;4869418;28;119042;-72
2024/01/19 02:29:34;;;;;;;6.47;3.28;;;;;;;2.68;58.80;101430.72;4850638;28;126032;-72
2024/01/19 02:32:01;;;;;;;8.00;3.50;;;;;;;2.65;58.86;101429.84;4871736;28;124233;-71
2024/01/19 02:34:28;;;;;;;4.60;2.88;;;;;;;2.63;58.99;101431.59;4853165;28;119989;-71
2024/01/19 02:36:55;;;;;;;5.90;2.85;;;;;;;2.61;58.98;101430.75;4870666;28;118472;-72
2024/01/19 02:39:23;;;;;;;6.03;3.10;;;;;;;2.59;58.86;101435.09;4853645;28;124243;-72
2024/01/19 02:41:50;;;;;;;8.18;3.40;;;;;;;2.56;58.97;101440.31;4868492;28;123719;-71
2024/01/19 02:44:18;;;;;;;5.55;3.08;;;;;;;2.53;58.96;101447.31;4867371;28;119082;-71
2024/01/19 02:46:45;;;;;;;5.45;2.55;;;;;;;2.49;58.84;101450.81;4844032;28;119166;-71
2024/01/19 02:49:12;;;;;;;7.10;3.35;;;;;;;2.47;58.82;101449.94;4862913;28;124059;-71
2024/01/19 02:51:39;;;;;;;6.50;3.08;;;;;;;2.45;58.76;101459.53;4853029;28;124030;-71
2024/01/19 02:54:06;;;;;;;7.35;3.10;;;;;;;2.43;58.85;101456.06;4867862;28;119151;-72
2024/01/19 02:56:33;;;;;;;7.15;2.80;;;;;;;2.41;58.82;101460.41;4856096;28;118286;-72
2024/01/19 02:59:00;;;;;;;7.40;3.03;;;;;;;2.40;58.79;101460.41;4867771;28;123872;-71
2024/01/19 03:01:28;;;;;;;6.18;3.13;;;;;;;2.39;58.92;101459.53;4867931;28;123911;-72
2024/01/19 03:03:55;;;;;;;5.22;2.72;;;;;;;2.37;58.57;101466.50;4855150;28;120863;-72
2024/01/19 03:06:23;;;;;;;5.70;2.75;;;;;;;2.33;58.97;101460.41;4854748;28;120839;-71
2024/01/19 03:08:50;;;;;;;4.95;2.72;;;;;;;2.30;59.01;101467.41;4869020;28;124657;-71
2024/01/19 03:11:17;;;;;;;3.72;2.45;;;;;;;2.29;58.91;101468.25;4856045;28;125125;-71
2024/01/19 03:13:44;;;;;;;6.10;2.53;;;;;;;2.27;59.21;101464.78;4858172;28;119633;-71
2024/01/19 03:16:11;;;;;;;6.75;3.20;;;;;;;2.26;59.04;101457.78;4869648;28;118404;-71
2024/01/19 03:18:38;;;;;;;7.10;3.35;;;;;;;2.25;59.10;101456.06;4853536;28;124232;-71
2024/01/19 03:21:06;;;;;;;6.15;2.90;;;;;;;2.24;59.00;101454.31;4851732;28;123993;-71
2024/01/19 03:23:33;;;;;;;6.50;2.78;;;;;;;2.22;58.97;101458.69;4867409;28;120258;-71
2024/01/19 03:26:00;;;;;;;7.60;3.30;;;;;;;2.21;59.02;101464.78;4858930;28;118032;-71
2024/01/19 03:28:27;;;;;;;7.75;3.00;;;;;;;2.21;58.90;101470.03;4849365;28;125118;-71
2024/01/19 03:30:54;;;;;;;7.40;3.13;;;;;;;2.20;58.87;101469.13;4855062;28;122725;-71
2024/01/19 03:33:22;;;;;;;6.90;2.83;;;;;;;2.18;59.04;101464.78;4855848;28;119309;-71
2024/01/19 03:35:49;;;;;;;4.80;2.80;;;;;;;2.18;59.14;101462.16;4869723;28;118727;-71
2024/01/19 03:38:18;;;;;;;8.65;3.13;;;;;;;2.18;59.28;101475.22;4867219;28;123837;-71
2024/01/19 03:40:47;;;;;;;7.18;2.95;;;;;;;2.17;59.06;101458.69;4838219;28;124919;-71
2024/01/19 03:43:14;;;;;;;6.53;2.97;;;;;;;2.14;59.12;101464.78;4867322;28;119828;-71
2024/01/19 03:45:41;;;;;;;6.97;3.15;;;;;;;2.14;59.07;101463.91;4839500;28;119288;-72
2024/01/19 03:48:09;;;;;;;10.02;3.08;;;;;;;2.13;59.03;101457.81;4866050;28;125689;-71
2024/01/19 03:50:37;;;;;;;6.70;3.28;;;;;;;2.12;59.09;101456.06;4867134;28;123796;-71
2024/01/19 03:53:04;;;;;;;6.00;3.25;;;;;;;2.12;58.93;101461.28;4851925;28;119785;-71
2024/01/19 03:55:32;;;;;;;6.72;3.20;;;;;;;2.11;59.30;101464.78;4869415;28;120472;-71
2024/01/19 03:57:59;;;;;;;9.57;3.63;;;;;;;2.13;59.21;101467.41;4853817;28;125232;-71
2024/01/19 04:00:26;;;;;;;8.35;3.42;;;;;;;2.10;59.08;101473.50;4867396;28;125015;-71
2024/01/19 04:02:53;;;;;;;8.10;3.70;;;;;;;2.10;59.22;101478.72;4868938;28;119512;-71
2024/01/19 04:05:21;;;;;;;7.80;3.50;;;;;;;2.10;59.12;101483.94;4869366;28;118965;-71
2024/01/19 04:07:48;;;;;;;6.53;3.40;;;;;;;2.08;59.24;101480.47;4867923;28;124842;-71
2024/01/19 04:10:15;;;;;;;10.77;3.80;;;;;;;2.08;59.30;101480.47;4851550;28;123854;-72
2024/01/19 04:12:42;;;;;;;6.13;3.70;;;;;;;2.08;59.10;101487.44;4848685;28;119399;-71
2024/01/19 04:15:10;;;;;;;6.80;3.67;;;;;;;2.07;59.23;101494.41;4868588;28;118894;-72
2024/01/19 04:17:37;;;;;;;6.28;3.53;;;;;;;2.06;59.28;101500.50;4850940;28;123958;-71
2024/01/19 04:20:05;;;;;;;7.43;3.50;;;;;;;2.06;59.25;101503.09;4851729;28;124145;-71
2024/01/19 04:22:33;;;;;;;7.72;3.55;;;;;;;2.05;59.06;101501.34;4857336;28;119626;-71
2024/01/19 04:25:00;;;;;;;6.57;3.30;;;;;;;2.04;59.22;101504.84;4867056;28;118387;-71
2024/01/19 04:27:27;;;;;;;9.60;3.78;;;;;;;2.02;59.22;101498.75;4868151;28;123695;-71
2024/01/19 04:29:54;;;;;;;5.82;3.42;;;;;;;2.03;59.37;101502.22;4859740;28;125081;-71
2024/01/19 04:32:22;;;;;;;8.45;3.22;;;;;;;2.02;59.29;101505.72;4851152;28;120330;-71
2024/01/19 04:34:49;;;;;;;5.85;3.20;;;;;;;2.01;59.30;101510.06;4854737;28;120017;-71
2024/01/19 04:37:16;;;;;;;6.22;3.38;;;;;;;2.01;59.24;101515.28;4857830;28;123451;-71
2024/01/19 04:39:43;;;;;;;7.28;3.25;;;;;;;2.02;59.41;101526.63;4870445;28;123773;-71
2024/01/19 04:42:12;;;;;;;8.90;3.53;;;;;;;2.00;59.20;101524.00;4871575;28;119402;-72
2024/01/19 04:44:39;;;;;;;5.88;3.28;;;;;;;2.01;58.96;101530.94;4858559;28;119784;-72
2024/01/19 04:47:06;;;;;;;5.78;3.17;;;;;;;2.00;59.26;101529.22;4870120;28;124035;-71
2024/01/19 04:49:33;;;;;;;7.45;3.70;;;;;;;2.01;59.38;101536.19;4860940;28;124763;-71
2024/01/19 04:52:01;;;;;;;6.25;3.10;;;;;;;2.02;59.32;101537.06;4855558;28;118303;-71
2024/01/19 04:54:28;;;;;;;7.25;3.33;;;;;;;2.02;59.46;101537.94;4870655;28;120078;-71
2024/01/19 04:56:55;;;;;;;6.25;3.28;;;;;;;2.01;59.34;101541.41;4867065;28;124009;-71
2024/01/19 04:59:22;;;;;;;9.13;3.55;;;;;;;2.00;59.14;101544.91;4863910;28;124059;-71
2024/01/19 05:01:49;;;;;;;5.78;3.15;;;;;;;2.00;59.32;101544.91;4867275;28;119045;-71
2024/01/19 05:04:16;;;;;;;6.10;3.22;;;;;;;2.00;59.42;101544.91;4863136;28;119042;-71
2024/01/19 05:06:44;;;;;;;6.35;3.15;;;;;;;2.00;59.42;101552.75;4866574;28;123714;-71
2024/01/19 05:09:11;;;;;;;5.45;3.20;;;;;;;2.01;59.52;101554.47;4850485;28;123725;-71
2024/01/19 05:11:38;;;;;;;7.70;3.45;;;;;;;2.01;59.23;101551.84;4849392;28;119245;-71
2024/01/19 05:14:06;;;;;;;5.78;2.92;;;;;;;2.02;59.37;101556.22;4856455;28;118690;-71
2024/01/19 05:16:34;;;;;;;5.82;3.38;;;;;;;2.02;59.31;101564.06;4867804;28;124681;-71
2024/01/19 05:19:01;;;;;;;6.43;3.30;;;;;;;2.02;59.81;101557.97;4868377;28;124067;-71
2024/01/19 05:21:28;;;;;;;6.53;3.53;;;;;;;2.03;59.54;101560.56;4845930;28;121145;-71
2024/01/19 05:23:55;;;;;;;7.50;3.53;;;;;;;2.04;59.25;101567.53;4840304;28;120906;-71
2024/01/19 05:26:25;;;;;;;7.43;3.40;;;;;;;2.04;59.31;101583.22;4869728;28;124676;-71
2024/01/19 05:28:52;;;;;;;8.27;3.33;;;;;;;2.05;59.50;101584.94;4868756;28;124588;-71
2024/01/19 05:31:19;;;;;;;7.53;3.50;;;;;;;2.05;59.37;101590.16;4870096;28;120418;-71
2024/01/19 05:33:46;;;;;;;6.80;3.70;;;;;;;2.05;59.34;101584.94;4870755;28;119700;-71
2024/01/19 05:36:13;;;;;;;6.38;3.40;;;;;;;2.05;59.42;101595.41;4866641;28;124671;-71
2024/01/19 05:38:41;;;;;;;9.52;3.83;;;;;;;2.06;59.60;101591.06;4855309;28;124932;-71
2024/01/19 05:41:08;;;;;;;5.80;3.40;;;;;;;2.07;59.62;101598.91;4872781;28;119124;-71
2024/01/19 05:43:35;;;;;;;8.43;3.30;;;;;;;2.07;59.63;101604.13;4842742;28;119623;-71
2024/01/19 05:46:03;;;;;;;9.60;3.70;;;;;;;2.08;59.60;101611.09;4869149;28;124943;-71
2024/01/19 05:48:30;;;;;;;6.90;3.42;;;;;;;2.09;59.82;101612.84;4871784;28;124242;-71
2024/01/19 05:50:57;;;;;;;6.65;3.42;;;;;;;2.12;59.75;101644.19;4870685;28;118515;-71
2024/01/19 05:53:24;;;;;;;8.07;3.33;;;;;;;2.16;59.62;101670.34;4841716;28;119253;-71
2024/01/19 05:55:52;;;;;;;8.30;3.53;;;;;;;2.19;59.67;101675.59;4859289;28;123996;-71
2024/01/19 05:58:19;;;;;;;10.60;4.05;;;;;;;2.21;59.55;101679.09;4852566;28;122961;-71
2024/01/19 06:00:46;;;;;;;7.63;3.28;;;;;;;2.24;59.98;101689.53;4840724;28;120469;-72
2024/01/19 06:03:13;;;;;;;7.43;3.17;;;;;;;2.28;60.01;101683.44;4853624;28;118022;-71
2024/01/19 06:05:40;;;;;;;7.32;3.00;;;;;;;2.34;59.89;101666.03;4839110;28;124977;-71
2024/01/19 06:08:08;;;;;;;6.75;3.50;;;;;;;2.41;59.97;101656.47;4857247;28;123594;-71
2024/01/19 06:10:35;;;;;;;8.02;3.85;;;;;;;2.46;59.86;101654.72;4855501;28;118986;-71
2024/01/19 06:13:02;;;;;;;6.15;3.20;;;;;;;2.52;60.11;101665.22;4871571;28;119681;-71
2024/01/19 06:15:30;;;;;;;7.68;3.28;;;;;;;2.56;59.91;101667.81;4853958;28;124504;-71
2024/01/19 06:17:57;;;;;;;6.88;3.88;;;;;;;2.57;59.85;101666.97;4867606;28;124475;-72
2024/01/19 06:20:24;;;;;;;5.80;3.38;;;;;;;2.58;59.53;101673.91;4870312;28;120034;-71
2024/01/19 06:22:51;;;;;;;6.75;3.80;;;;;;;2.59;59.58;101680.91;4869060;28;121127;-72
2024/01/19 06:25:19;;;;;;;8.88;3.28;;;;;;;2.58;59.68;101666.97;4870179;28;125015;-71
2024/01/19 06:27:46;;;;;;;5.65;3.30;;;;;;;2.58;59.55;101679.13;4869888;28;124988;-72
2024/01/19 06:30:13;;;;;;;5.85;3.60;;;;;;;2.57;59.70;101688.75;4867529;28;118674;-71
2024/01/19 06:32:41;;;;;;;9.23;3.30;;;;;;;2.57;59.53;101687.88;4855813;28;119454;-71
2024/01/19 06:35:08;;;;;;;6.75;3.72;;;;;;;2.54;59.61;101688.72;4870375;28;124988;-71
2024/01/19 06:37:37;;;;;;;6.43;3.45;;;;;;;2.53;59.63;101703.56;4868200;28;123288;-71
2024/01/19 06:40:07;;;;;;;5.70;3.30;;;;;;;2.52;59.66;101701.81;4870560;28;119153;-71
2024/01/19 06:42:34;;;;;;;6.80;3.58;;;;;;;2.50;59.49;101716.59;4855147;28;120204;-71
2024/01/19 06:45:01;;;;;;;6.65;3.72;;;;;;;2.49;59.58;101720.09;4852844;28;123968;-71
2024/01/19 06:47:28;;;;;;;5.97;3.75;;;;;;;2.47;59.54;101724.47;4870075;28;123048;-72
2024/01/19 06:49:56;;;;;;;8.38;3.60;;;;;;;2.45;59.48;101722.69;4868450;28;120295;-71
2024/01/19 06:52:23;;;;;;;6.15;3.45;;;;;;;2.43;59.45;101727.94;4868760;28;120466;-72
2024/01/19 06:54:50;;;;;;;7.93;3.42;;;;;;;2.40;59.60;101727.06;4851719;28;123092;-71
2024/01/19 06:57:17;;;;;;;9.68;3.92;;;;;;;2.39;59.56;101730.53;4852880;28;125824;-71
2024/01/19 06:59:44;;;;;;;7.43;3.95;;;;;;;2.34;59.60;101728.78;4871054;28;120177;-71
2024/01/19 07:02:12;;;;;;;8.52;4.00;;;;;;;2.32;59.62;101737.50;4859670;28;120385;-71
2024/01/19 07:04:39;;;;;;;7.63;3.55;;;;;;;2.31;59.57;101733.13;4845714;28;124971;-71
2024/01/19 07:07:06;;;;;;;5.80;3.83;;;;;;;2.28;59.59;101743.53;4869446;28;123956;-71
2024/01/19 07:09:33;;;;;;;5.90;3.70;;;;;;;2.24;59.60;101747.91;4862581;28;121514;-71
2024/01/19 07:12:00;;;;;;;5.38;3.60;;;;;;;2.22;59.58;101761.81;4870561;28;119862;-71
2024/01/19 07:14:27;;;;;;;6.60;4.00;;;;;;;2.19;59.71;101759.22;4867210;28;123926;-71
2024/01/19 07:16:55;;;;;;;7.30;4.22;;;;;;;2.18;59.74;101773.13;4868849;28;123773;-71
2024/01/19 07:19:22;;;;;;;7.82;4.38;;;;;;;2.14;59.55;101767.88;4845302;28;121016;-73
2024/01/19 07:21:49;;;;;;;15.40;4.85;;;;;;;2.12;59.57;101769.63;4867108;28;118638;-70
2024/01/19 07:24:17;;;;;;;8.55;4.28;;;;;;;2.10;59.55;101776.59;4858538;28;124854;-72
2024/01/19 07:26:45;;;;;;;11.60;4.80;;;;;;;2.07;59.55;101787.03;4853013;28;123985;-71
2024/01/19 07:29:13;;;;;;;8.88;4.15;;;;;;;2.02;59.67;101780.91;4865928;28;119499;-71
2024/01/19 07:31:41;;;;;;;12.52;6.28;;;;;;;2.00;59.69;101789.59;4867291;28;117355;-71
2024/01/19 07:34:08;;;;;;;11.90;5.93;;;;;;;1.97;59.66;101790.44;4848619;28;124442;-71
2024/01/19 07:36:35;;;;;;;12.60;6.75;;;;;;;1.96;59.48;101793.94;4846711;28;123320;-71
2024/01/19 07:39:03;;;;;;;10.52;6.25;;;;;;;1.94;59.60;101800.88;4868973;28;119351;-70
2024/01/19 07:41:31;;;;;;;12.95;7.30;;;;;;;1.91;59.65;101806.09;4869167;28;118612;-70
2024/01/19 07:43:58;;;;;;;9.85;5.95;;;;;;;1.88;59.65;101806.06;4866379;28;124082;-70
2024/01/19 07:46:25;;;;;;;9.02;5.20;;;;;;;1.87;59.65;101799.09;4867827;28;123590;-70
2024/01/19 07:48:52;;;;;;;10.38;5.72;;;;;;;1.84;59.63;101809.53;4835516;28;119892;-71
2024/01/19 07:51:20;;;;;;;8.93;5.93;;;;;;;1.82;59.67;101811.25;4851839;28;120599;-72
2024/01/19 07:53:47;;;;;;;12.75;6.65;;;;;;;1.79;59.57;101811.22;4859007;28;124986;-72
2024/01/19 07:56:15;;;;;;;13.07;6.70;;;;;;;1.74;59.62;101809.47;4850625;28;124478;-71
2024/01/19 07:58:43;;;;;;;13.32;5.95;;;;;;;1.73;59.63;101818.19;4848426;28;120233;-74
2024/01/19 08:01:11;;;;;;;10.07;6.60;;;;;;;1.72;59.70;101816.41;4864436;28;120794;-74
2024/01/19 08:03:39;;;;;;;11.18;6.30;;;;;;;1.70;59.72;101812.91;4851872;28;124008;-71
2024/01/19 08:06:07;;;;;;;9.18;5.60;;;;;;;1.69;59.85;101821.59;4849705;28;124492;-72
2024/01/19 08:08:34;;;;;;;10.43;6.28;;;;;;;1.68;59.95;101830.31;4843857;28;120564;-72
2024/01/19 08:11:02;;;;;;;12.60;6.47;;;;;;;1.66;59.63;101832.03;4865856;28;119235;-74
2024/01/19 08:13:29;;;;;;;12.15;6.47;;;;;;;1.65;59.81;101835.50;4869061;28;124426;-73
2024/01/19 08:15:57;;;;;;;10.55;6.70;;;;;;;1.64;59.71;101833.78;4862732;28;124543;-72
2024/01/19 08:18:24;;;;;;;8.80;6.10;;;;;;;1.64;59.81;101838.09;4864059;28;119654;-72
2024/01/19 08:20:51;;;;;;;15.80;6.78;;;;;;;1.62;60.17;101851.16;4849172;28;120138;-72
2024/01/19 08:23:19;;;;;;;15.80;6.60;;;;;;;1.63;60.18;101852.91;4866128;28;123710;-72
2024/01/19 08:25:46;;;;;;;13.75;6.95;;;;;;;1.62;59.98;101856.38;4843545;28;124439;-72
2024/01/19 08:28:13;;;;;;;12.63;6.40;;;;;;;1.62;60.00;101861.59;4851880;28;120092;-72
2024/01/19 08:30:40;;;;;;;11.30;6.18;;;;;;;1.62;60.19;101851.16;4866702;28;119177;-71
2024/01/19 08:33:08;;;;;;;13.07;6.50;;;;;;;1.62;60.26;101856.38;4842528;29;124981;-72
2024/01/19 08:35:35;;;;;;;13.23;6.28;;;;;;;1.63;60.00;101852.91;4855160;28;124679;-70
2024/01/19 08:38:03;;;;;;;10.13;6.05;;;;;;;1.65;60.26;101855.53;4867747;28;119949;-71
2024/01/19 08:40:30;;;;;;;9.75;6.15;;;;;;;1.65;60.06;101861.63;4867920;28;119920;-74
2024/01/19 08:42:57;;;;;;;15.07;6.10;;;;;;;1.66;60.23;101868.59;4868040;28;122781;-71
2024/01/19 08:45:30;;;;;;;9.82;6.07;;;;;;;1.67;60.12;101862.50;4867659;28;124563;-70
2024/01/19 08:47:58;;;;;;;10.40;5.95;;;;;;;1.70;60.09;101875.59;4851066;28;120606;-70
2024/01/19 08:50:27;;;;;;;11.30;6.63;;;;;;;1.70;60.29;101875.59;4855205;28;119890;-71
2024/01/19 08:52:55;;;;;;;11.85;6.55;;;;;;;1.73;60.50;101880.84;4850813;28;125018;-70
2024/01/19 08:55:22;;;;;;;9.55;6.50;;;;;;;1.77;60.53;101886.06;4854314;28;125295;-73
2024/01/19 08:57:49;;;;;;;13.60;6.53;;;;;;;1.79;60.51;101889.56;4858846;28;119692;-71
2024/01/19 09:00:17;;;;;;;12.48;6.63;;;;;;;1.82;60.56;101894.84;4875890;28;119123;-71
2024/01/19 09:02:47;;;;;;;14.40;7.00;;;;;;;1.86;60.52;101905.31;4874771;28;123911;-71
2024/01/19 09:05:28;;;;;;;13.15;7.10;;;;;;;1.90;60.49;101903.59;4852419;29;124281;-71
2024/01/19 09:07:56;;;;;;;11.38;6.38;;;;;;;1.93;60.89;101906.25;4869764;28;119018;-71
2024/01/19 09:10:24;;;;;;;10.18;6.45;;;;;;;1.96;60.63;101911.50;4871860;28;119250;-70
2024/01/19 09:12:51;;;;;;;13.68;6.47;;;;;;;2.01;60.63;101907.16;4849380;28;124965;-73
2024/01/19 09:15:18;;;;;;;13.00;6.32;;;;;;;2.06;60.57;101915.91;4868700;28;123308;-71
2024/01/19 09:17:47;;;;;;;12.88;6.93;;;;;;;2.09;60.77;101910.72;4860459;28;119712;-71
2024/01/19 09:20:14;;;;;;;10.93;6.50;;;;;;;2.14;60.50;101924.69;4870490;28;119320;-71
2024/01/19 09:22:43;;;;;;;14.68;6.85;;;;;;;2.17;60.57;101922.94;4867855;28;124677;-71
2024/01/19 09:25:11;;;;;;;10.00;6.57;;;;;;;2.21;60.77;101925.63;4866933;28;125184;-71
2024/01/19 09:27:38;;;;;;;16.42;6.82;;;;;;;2.25;60.69;101934.34;4871552;28;119946;-71
2024/01/19 09:30:06;;;;;;;10.68;6.18;;;;;;;2.28;60.81;101947.41;4850348;28;119729;-70
2024/01/19 09:32:33;;;;;;;9.85;6.15;;;;;;;2.32;60.75;101950.09;4868024;28;124910;-71
2024/01/19 09:35:01;;;;;;;12.23;6.75;;;;;;;2.37;61.02;101947.50;4875300;28;123944;-70
2024/01/19 09:37:28;;;;;;;13.77;6.57;;;;;;;2.42;60.79;101950.16;4852126;28;121064;-71
2024/01/19 09:39:58;;;;;;;11.20;6.72;;;;;;;2.45;60.95;101951.03;4872418;28;119721;-71
2024/01/19 09:42:30;;;;;;;14.52;6.70;;;;;;;2.49;60.75;101952.81;4858238;28;124211;-72
2024/01/19 09:45:07;;;;;;;12.85;6.50;;;;;;;2.55;60.96;101961.56;4852289;28;124417;-71
2024/01/19 09:47:48;;;;;;;11.93;6.70;;;;;;;2.58;60.88;101956.34;4868470;28;119036;-72
2024/01/19 09:50:20;;;;;;;11.80;6.65;;;;;;;2.61;60.79;101972.94;4870838;28;119257;-72
2024/01/19 09:52:58;;;;;;;15.88;6.43;;;;;;;2.66;61.28;101967.75;4869412;28;124681;-71
2024/01/19 09:55:27;;;;;;;14.40;7.10;;;;;;;2.71;60.92;101973.84;4835317;28;124744;-72
2024/01/19 09:57:56;;;;;;;10.57;6.55;;;;;;;2.76;60.95;101977.38;4858976;28;121190;-71
2024/01/19 10:00:23;;;;;;;10.95;6.18;;;;;;;2.81;61.07;101975.66;4870368;28;118945;-69
2024/01/19 10:02:52;;;;;;;12.68;6.40;;;;;;;2.87;61.06;101980.91;4871369;28;124973;-72
2024/01/19 10:05:21;;;;;;;12.50;6.63;;;;;;;2.92;61.04;101979.22;4856820;28;123422;-69
2024/01/19 10:07:57;;;;;;;12.10;6.32;;;;;;;2.99;61.08;101979.22;4869277;28;119101;-69
2024/01/19 10:10:25;;;;;;;12.88;5.72;;;;;;;3.06;61.29;101986.25;4867840;28;118778;-69
2024/01/19 10:12:53;;;;;;;9.77;5.97;;;;;;;3.12;61.22;101986.28;4866177;28;124674;-70
2024/01/19 10:15:20;;;;;;;10.00;5.05;;;;;;;3.20;61.40;101994.16;4871601;28;123775;-72
2024/01/19 10:17:48;;;;;;;8.18;5.28;;;;;;;3.27;61.22;101991.56;4870532;28;119281;-71
2024/01/19 10:20:16;;;;;;;9.63;5.30;;;;;;;3.35;61.19;101993.34;4871776;28;119585;-71
2024/01/19 10:22:44;;;;;;;10.93;5.35;;;;;;;3.41;61.20;101999.47;4868771;28;126083;-71
2024/01/19 10:25:13;;;;;;;11.93;5.35;;;;;;;3.49;61.36;101999.50;4870046;28;124309;-72
2024/01/19 10:27:41;;;;;;;12.65;5.28;;;;;;;3.56;61.20;101997.75;4870324;28;120704;-71
2024/01/19 10:30:10;;;;;;;7.22;4.95;;;;;;;3.62;61.23;102003.91;4870257;28;121359;-71
2024/01/19 10:32:42;;;;;;;10.13;5.20;;;;;;;3.70;61.52;101996.06;4866819;28;125783;-71
2024/01/19 10:35:13;;;;;;;10.98;5.60;;;;;;;3.79;61.52;101995.22;4865438;28;124632;-71
2024/01/19 10:37:40;;;;;;;9.73;5.38;;;;;;;3.86;61.39;101996.94;4854122;28;119481;-71
2024/01/19 10:40:14;;;;;;;12.25;4.63;;;;;;;3.93;61.54;101993.47;4871887;28;118783;-71
2024/01/19 10:42:42;;;;;;;9.68;5.68;;;;;;;4.00;61.28;102000.47;4854246;28;124336;-73
2024/01/19 10:45:28;;;;;;;18.27;6.82;;;;;;;4.07;61.42;101996.97;4869504;28;123419;-72
2024/01/19 10:47:57;;;;;;;21.27;7.30;;;;;;;4.14;61.27;101991.72;4857166;28;120126;-71
2024/01/19 10:50:26;;;;;;;9.18;5.15;;;;;;;4.22;61.43;101995.22;4864284;28;118644;-70
2024/01/19 10:52:56;;;;;;;13.80;5.05;;;;;;;4.28;61.24;102005.72;4855720;28;123496;-73
2024/01/19 10:55:25;;;;;;;9.70;4.50;;;;;;;4.35;61.48;102010.09;4854260;28;124791;-71
2024/01/19 10:57:56;;;;;;;10.15;5.15;;;;;;;4.42;61.22;102006.56;4852197;28;120480;-70
2024/01/19 11:00:26;;;;;;;8.60;4.70;;;;;;;4.49;61.56;102010.94;4851546;28;119243;-71
2024/01/19 11:03:02;;;;;;;9.75;4.82;;;;;;;4.58;61.20;102019.69;4850124;29;126086;-72
2024/01/19 11:05:30;;;;;;;7.13;4.75;;;;;;;4.64;61.07;102003.94;4862969;28;124374;-72
2024/01/19 11:07:59;;;;;;;6.95;4.68;;;;;;;4.71;61.08;102010.94;4868131;28;119013;-72
2024/01/19 11:10:29;;;;;;;8.05;4.53;;;;;;;4.78;61.35;102006.53;4852803;28;117306;-71
2024/01/19 11:13:01;;;;;;;10.13;4.53;;;;;;;4.86;61.48;102007.41;4869471;28;123673;-73
2024/01/19 11:15:58;;;;;;;10.15;4.28;;;;;;;4.94;61.23;102007.38;4862749;28;124060;-72
2024/01/19 11:18:28;;;;;;;7.13;4.60;;;;;;;5.00;60.97;102007.34;4849120;28;121065;-72
2024/01/19 11:20:57;;;;;;;10.55;4.55;;;;;;;5.07;61.11;102003.84;4865639;28;120598;-73
2024/01/19 11:23:25;;;;;;;9.27;4.55;;;;;;;5.13;61.45;102002.94;4866379;28;125540;-72
2024/01/19 11:26:07;;;;;;;7.97;4.93;;;;;;;5.22;61.24;102003.78;4866026;28;124042;-72